createdAt,value
2023-02-15T00:01:10.487Z,1.06
2023-02-15T00:04:46.060Z,1.00
2023-02-15T00:08:07.533Z,1.00
2023-02-15T00:11:41.579Z,1.00
2023-02-15T00:15:03.231Z,1.01
2023-02-15T00:18:26.301Z,1.01
2023-02-15T00:21:48.854Z,1.01
2023-02-15T00:25:12.625Z,1.05
2023-02-15T00:28:34.373Z,1.07
2023-02-15T00:31:56.331Z,1.06
2023-02-15T00:35:20.645Z,1.04
2023-02-15T00:38:42.407Z,1.01
2023-02-15T00:42:03.655Z,0.97
2023-02-15T00:45:25.193Z,0.94
2023-02-15T00:48:47.049Z,0.95
2023-02-15T00:52:09.747Z,0.96
2023-02-15T00:55:31.436Z,0.97
2023-02-15T00:58:53.228Z,0.98
2023-02-15T01:02:14.939Z,0.98
2023-02-15T01:05:36.582Z,0.95
2023-02-15T01:09:00.639Z,0.95
2023-02-15T01:12:22.323Z,0.97
2023-02-15T01:15:44.652Z,0.98
2023-02-15T01:19:07.086Z,0.99
2023-02-15T01:22:28.593Z,0.96
2023-02-15T01:25:52.172Z,0.97
2023-02-15T01:29:14.093Z,1.00
2023-02-15T01:32:35.948Z,1.05
2023-02-15T01:36:01.489Z,1.11
2023-02-15T01:39:23.380Z,1.11
2023-02-15T01:42:52.831Z,1.15
2023-02-15T01:46:16.072Z,1.19
2023-02-15T01:49:37.556Z,1.21
2023-02-15T01:53:04.107Z,1.22
2023-02-15T01:56:29.904Z,1.22
2023-02-15T01:59:57.826Z,1.22
2023-02-15T02:03:22.738Z,1.25
2023-02-15T02:06:46.264Z,1.26
2023-02-15T02:10:11.506Z,1.24
2023-02-15T02:13:33.012Z,1.23
2023-02-15T02:17:02.360Z,1.22
2023-02-15T02:21:03.404Z,1.18
2023-02-15T02:24:49.811Z,1.16
2023-02-15T02:28:32.844Z,1.13
2023-02-15T02:32:15.146Z,1.08
2023-02-15T02:35:46.688Z,1.07
2023-02-15T02:39:16.135Z,1.00
2023-02-15T02:42:42.381Z,1.00
2023-02-15T02:46:12.170Z,1.00
2023-02-15T02:49:35.956Z,0.93
2023-02-15T02:53:00.935Z,0.86
2023-02-15T02:56:27.194Z,0.81
2023-02-15T02:59:51.852Z,0.77
2023-02-15T03:03:17.999Z,0.69
2023-02-15T03:06:44.606Z,0.62
2023-02-15T03:10:10.237Z,0.56
2023-02-15T03:13:32.606Z,0.49
2023-02-15T03:16:56.131Z,0.44
2023-02-15T03:20:22.449Z,0.39
2023-02-15T03:23:44.271Z,0.32
2023-02-15T03:27:12.445Z,0.28
2023-02-15T03:30:36.574Z,0.23
2023-02-15T03:34:02.115Z,0.21
2023-02-15T03:37:31.192Z,0.19
2023-02-15T03:41:13.442Z,0.18
2023-02-15T03:44:43.748Z,0.16
2023-02-15T03:48:09.321Z,0.13
2023-02-15T03:51:39.056Z,0.09
2023-02-15T03:55:01.098Z,0.07
2023-02-15T03:58:40.361Z,0.04
2023-02-15T04:02:17.712Z,0.01
2023-02-15T04:05:39.831Z,-0.01
2023-02-15T04:09:18.628Z,-0.02
2023-02-15T04:12:40.190Z,-0.05
2023-02-15T04:16:08.514Z,-0.04
2023-02-15T04:19:53.394Z,-0.06
2023-02-15T04:23:32.013Z,-0.05
2023-02-15T04:26:54.591Z,-0.05
2023-02-15T04:30:19.328Z,-0.08
2023-02-15T04:33:40.986Z,-0.08
2023-02-15T04:37:04.067Z,-0.08
2023-02-15T04:40:25.757Z,-0.08
2023-02-15T04:43:47.562Z,-0.07
2023-02-15T04:47:09.338Z,-0.09
2023-02-15T04:50:31.222Z,-0.09
2023-02-15T04:53:54.483Z,-0.08
2023-02-15T04:57:16.279Z,-0.11
2023-02-15T05:00:37.831Z,-0.13
2023-02-15T05:03:59.649Z,-0.13
2023-02-15T05:07:22.343Z,-0.10
2023-02-15T05:10:45.278Z,-0.10
2023-02-15T05:14:07.191Z,-0.11
2023-02-15T05:17:28.859Z,-0.10
2023-02-15T05:20:50.983Z,-0.10
2023-02-15T05:24:26.683Z,-0.09
2023-02-15T05:28:06.973Z,-0.09
2023-02-15T05:31:28.618Z,-0.09
2023-02-15T05:34:50.036Z,-0.11
2023-02-15T05:38:11.883Z,-0.11
2023-02-15T05:41:33.143Z,-0.14
2023-02-15T05:44:56.393Z,-0.20
2023-02-15T05:48:19.367Z,-0.22
2023-02-15T05:51:40.944Z,-0.21
2023-02-15T05:55:03.720Z,-0.21
2023-02-15T05:58:25.420Z,-0.21
2023-02-15T06:01:48.653Z,-0.22
2023-02-15T06:05:10.459Z,-0.21
2023-02-15T06:08:32.460Z,-0.24
2023-02-15T06:11:53.895Z,-0.25
2023-02-15T06:15:15.035Z,-0.26
2023-02-15T06:18:37.636Z,-0.25
2023-02-15T06:21:59.233Z,-0.24
2023-02-15T06:25:21.989Z,-0.24
2023-02-15T06:28:43.815Z,-0.27
2023-02-15T06:32:05.802Z,-0.32
2023-02-15T06:35:29.656Z,-0.30
2023-02-15T06:38:51.271Z,-0.30
2023-02-15T06:42:13.642Z,-0.29
2023-02-15T06:45:36.190Z,-0.31
2023-02-15T06:48:58.001Z,-0.35
2023-02-15T06:52:21.275Z,-0.38
2023-02-15T06:55:43.230Z,-0.39
2023-02-15T06:59:05.118Z,-0.43
2023-02-15T07:02:26.925Z,-0.47
2023-02-15T07:05:49.801Z,-0.47
2023-02-15T07:09:13.712Z,-0.50
2023-02-15T07:12:45.530Z,-0.52
2023-02-15T07:16:07.135Z,-0.50
2023-02-15T07:19:28.955Z,-0.48
2023-02-15T07:22:51.425Z,-0.47
2023-02-15T07:26:14.947Z,-0.40
2023-02-15T07:29:36.753Z,-0.40
2023-02-15T07:33:15.748Z,-0.35
2023-02-15T07:36:37.426Z,-0.30
2023-02-15T07:39:59.155Z,-0.28
2023-02-15T07:43:22.076Z,-0.23
2023-02-15T07:46:44.010Z,-0.17
2023-02-15T07:50:06.881Z,-0.12
2023-02-15T07:53:29.328Z,-0.10
2023-02-15T07:56:50.955Z,-0.05
2023-02-15T08:00:17.723Z,-0.02
2023-02-15T08:03:39.620Z,0.04
2023-02-15T08:07:01.462Z,0.10
2023-02-15T08:10:42.828Z,0.16
2023-02-15T08:14:06.361Z,0.21
2023-02-15T08:17:29.086Z,0.28
2023-02-15T08:20:52.160Z,0.33
2023-02-15T08:24:18.088Z,0.40
2023-02-15T08:27:39.776Z,0.44
2023-02-15T08:31:06.851Z,0.46
2023-02-15T08:34:31.391Z,0.53
2023-02-15T08:37:53.574Z,0.58
2023-02-15T08:41:17.479Z,0.65
2023-02-15T08:44:39.065Z,0.67
2023-02-15T08:48:00.900Z,0.68
2023-02-15T08:51:25.204Z,0.72
2023-02-15T08:54:46.874Z,0.72
2023-02-15T08:58:08.638Z,0.82
2023-02-15T09:01:32.062Z,0.88
2023-02-15T09:04:53.857Z,0.98
2023-02-15T09:08:17.350Z,1.03
2023-02-15T09:11:40.732Z,1.10
2023-02-15T09:15:02.466Z,1.18
2023-02-15T09:18:24.198Z,1.24
2023-02-15T09:21:46.046Z,1.29
2023-02-15T09:25:09.955Z,1.38
2023-02-15T09:28:33.436Z,1.44
2023-02-15T09:31:55.565Z,1.54
2023-02-15T09:35:16.841Z,1.63
2023-02-15T09:38:38.591Z,1.69
2023-02-15T09:42:34.991Z,1.76
2023-02-15T09:46:13.398Z,1.83
2023-02-15T09:49:47.659Z,1.89
2023-02-15T09:53:31.496Z,2.00
2023-02-15T09:56:58.180Z,2.06
2023-02-15T10:00:31.593Z,2.09
2023-02-15T10:04:14.573Z,2.15
2023-02-15T10:08:01.640Z,2.22
2023-02-15T10:11:41.523Z,2.26
2023-02-15T10:15:30.930Z,2.35
2023-02-15T10:19:10.537Z,2.43
2023-02-15T10:22:44.211Z,2.45
2023-02-15T10:26:15.062Z,2.52
2023-02-15T10:29:38.611Z,2.55
2023-02-15T10:33:03.020Z,2.64
2023-02-15T10:36:40.193Z,2.73
2023-02-15T10:40:11.198Z,2.78
2023-02-15T10:43:46.475Z,2.87
2023-02-15T10:47:32.102Z,2.94
2023-02-15T10:50:56.830Z,3.01
2023-02-15T10:54:30.519Z,3.09
2023-02-15T10:58:01.647Z,3.16
2023-02-15T11:01:29.788Z,3.27
2023-02-15T11:05:04.535Z,3.34
2023-02-15T11:08:27.488Z,3.41
2023-02-15T11:11:53.161Z,3.45
2023-02-15T11:15:21.761Z,3.48
2023-02-15T11:18:48.507Z,3.56
2023-02-15T11:22:12.327Z,3.62
2023-02-15T11:25:36.343Z,3.64
2023-02-15T11:29:03.717Z,3.70
2023-02-15T11:32:28.309Z,3.77
2023-02-15T11:35:52.975Z,3.84
2023-02-15T11:39:18.348Z,3.91
2023-02-15T11:42:40.548Z,3.94
2023-02-15T11:46:03.604Z,4.00
2023-02-15T11:49:29.561Z,4.08
2023-02-15T11:52:51.947Z,4.14
2023-02-15T11:56:17.271Z,4.20
2023-02-15T11:59:41.949Z,4.22
2023-02-15T12:03:11.837Z,4.27
2023-02-15T12:06:36.258Z,4.29
2023-02-15T12:10:05.321Z,4.33
2023-02-15T12:13:27.097Z,4.39
2023-02-15T12:16:51.300Z,4.45
2023-02-15T12:20:29.869Z,4.52
2023-02-15T12:23:54.407Z,4.58
2023-02-15T12:27:19.456Z,4.64
2023-02-15T12:30:44.928Z,4.69
2023-02-15T12:34:14.135Z,4.73
2023-02-15T12:37:37.281Z,4.77
2023-02-15T12:41:02.324Z,4.82
2023-02-15T12:44:27.022Z,4.86
2023-02-15T12:47:50.128Z,4.89
2023-02-15T12:51:17.307Z,4.81
2023-02-15T12:54:42.455Z,4.87
2023-02-15T12:58:18.128Z,4.94
2023-02-15T13:01:41.326Z,5.00
2023-02-15T13:05:17.353Z,5.05
2023-02-15T13:08:48.193Z,5.12
2023-02-15T13:12:20.863Z,5.14
2023-02-15T13:15:43.711Z,5.20
2023-02-15T13:19:09.357Z,5.29
2023-02-15T13:22:37.447Z,5.33
2023-02-15T13:26:04.283Z,5.41
2023-02-15T13:29:30.315Z,5.49
2023-02-15T13:32:54.787Z,5.57
2023-02-15T13:36:23.108Z,5.65
2023-02-15T13:39:51.521Z,5.65
2023-02-15T13:43:28.323Z,5.70
2023-02-15T13:47:08.721Z,5.71
2023-02-15T13:51:00.051Z,5.70
2023-02-15T13:54:55.303Z,5.69
2023-02-15T13:58:34.683Z,5.70
2023-02-15T14:02:00.306Z,5.71
2023-02-15T14:05:42.846Z,5.67
2023-02-15T14:09:16.760Z,5.67
2023-02-15T14:13:01.475Z,5.63
2023-02-15T14:16:33.838Z,5.65
2023-02-15T14:20:03.412Z,5.62
2023-02-15T14:23:37.221Z,5.63
2023-02-15T14:27:09.457Z,5.62
2023-02-15T14:30:35.583Z,5.61
2023-02-15T14:33:59.048Z,5.59
2023-02-15T14:37:31.309Z,5.54
2023-02-15T14:41:04.888Z,5.52
2023-02-15T14:44:38.697Z,5.52
2023-02-15T14:48:09.975Z,5.53
2023-02-15T14:52:03.232Z,5.50
2023-02-15T14:55:38.713Z,5.49
2023-02-15T14:59:17.300Z,5.42
2023-02-15T15:02:49.669Z,5.37
2023-02-15T15:06:27.947Z,5.37
2023-02-15T15:10:05.175Z,5.34
2023-02-15T15:13:54.818Z,5.35
2023-02-15T15:17:57.055Z,5.33
2023-02-15T15:21:51.865Z,5.29
2023-02-15T15:25:45.648Z,5.27
2023-02-15T15:29:09.325Z,5.25
2023-02-15T15:32:35.448Z,5.22
2023-02-15T15:36:14.080Z,5.21
2023-02-15T15:40:00.314Z,5.16
2023-02-15T15:43:55.651Z,5.13
2023-02-15T15:47:34.324Z,5.07
2023-02-15T15:50:59.851Z,5.01
2023-02-15T15:54:23.539Z,4.95
2023-02-15T15:57:49.768Z,4.87
2023-02-15T16:01:14.680Z,4.82
2023-02-15T16:04:37.717Z,4.75
2023-02-15T16:07:59.361Z,4.66
2023-02-15T16:11:24.962Z,4.61
2023-02-15T16:14:50.019Z,4.56
2023-02-15T16:18:17.251Z,4.52
2023-02-15T16:21:40.165Z,4.45
2023-02-15T16:25:24.229Z,4.38
2023-02-15T16:28:50.857Z,4.33
2023-02-15T16:32:21.297Z,4.26
2023-02-15T16:35:56.053Z,4.18
2023-02-15T16:39:22.621Z,4.11
2023-02-15T16:42:44.187Z,4.03
2023-02-15T16:46:08.439Z,3.96
2023-02-15T16:49:31.704Z,3.91
2023-02-15T16:52:54.129Z,3.85
2023-02-15T16:56:24.153Z,3.77
2023-02-15T16:59:49.954Z,3.66
2023-02-15T17:03:24.136Z,3.57
2023-02-15T17:07:00.607Z,3.50
2023-02-15T17:10:32.083Z,3.45
2023-02-15T17:14:16.294Z,3.42
2023-02-15T17:17:38.125Z,3.38
2023-02-15T17:21:02.518Z,3.29
2023-02-15T17:24:33.620Z,3.18
2023-02-15T17:27:57.455Z,3.11
2023-02-15T17:31:22.470Z,3.08
2023-02-15T17:34:52.023Z,3.01
2023-02-15T17:38:20.855Z,2.93
2023-02-15T17:41:43.599Z,2.86
2023-02-15T17:45:06.047Z,2.77
2023-02-15T17:48:34.162Z,2.73
2023-02-15T17:51:56.136Z,2.72
2023-02-15T17:55:39.247Z,2.69
2023-02-15T17:59:01.169Z,2.62
2023-02-15T18:02:40.139Z,2.57
2023-02-15T18:06:20.831Z,2.54
2023-02-15T18:09:59.901Z,2.53
2023-02-15T18:13:21.326Z,2.45
2023-02-15T18:16:45.873Z,2.42
2023-02-15T18:20:18.076Z,2.39
2023-02-15T18:23:42.244Z,2.36
2023-02-15T18:27:05.521Z,2.33
2023-02-15T18:30:27.892Z,2.27
2023-02-15T18:33:51.660Z,2.19
2023-02-15T18:37:17.310Z,2.12
2023-02-15T18:40:40.481Z,2.07
2023-02-15T18:44:02.297Z,2.03
2023-02-15T18:47:24.206Z,2.02
2023-02-15T18:50:46.342Z,2.00
2023-02-15T18:54:17.167Z,1.98
2023-02-15T18:57:41.704Z,1.95
2023-02-15T19:01:03.627Z,1.90
2023-02-15T19:04:25.963Z,1.85
2023-02-15T19:07:49.315Z,1.85
2023-02-15T19:11:15.914Z,1.80
2023-02-15T19:14:39.018Z,1.74
2023-02-15T19:18:00.719Z,1.74
2023-02-15T19:22:06.436Z,1.71
2023-02-15T19:25:31.123Z,1.70
2023-02-15T19:28:53.308Z,1.68
2023-02-15T19:32:16.476Z,1.67
2023-02-15T19:35:38.196Z,1.66
2023-02-15T19:38:59.951Z,1.67
2023-02-15T19:42:24.547Z,1.66
2023-02-15T19:45:46.755Z,1.63
2023-02-15T19:49:11.727Z,1.62
2023-02-15T19:52:33.419Z,1.58
2023-02-15T19:55:54.959Z,1.56
2023-02-15T19:59:23.911Z,1.50
2023-02-15T20:02:45.586Z,1.48
2023-02-15T20:06:14.745Z,1.44
2023-02-15T20:09:40.689Z,1.40
2023-02-15T20:13:03.375Z,1.40
2023-02-15T20:16:26.388Z,1.39
2023-02-15T20:19:48.086Z,1.39
2023-02-15T20:23:19.170Z,1.35
2023-02-15T20:26:40.632Z,1.33
2023-02-15T20:30:02.340Z,1.26
2023-02-15T20:33:24.569Z,1.24
2023-02-15T20:36:45.972Z,1.20
2023-02-15T20:40:15.332Z,1.15
2023-02-15T20:43:37.016Z,1.11
2023-02-15T20:47:01.473Z,1.07
2023-02-15T20:50:25.859Z,1.08
2023-02-15T20:53:47.817Z,1.06
2023-02-15T20:57:13.047Z,1.06
2023-02-15T21:00:34.825Z,1.06
2023-02-15T21:03:56.384Z,1.03
2023-02-15T21:07:20.081Z,1.03
2023-02-15T21:10:45.374Z,1.01
2023-02-15T21:14:16.544Z,0.97
2023-02-15T21:17:38.292Z,0.91
2023-02-15T21:21:01.679Z,0.93
2023-02-15T21:24:25.761Z,0.90
2023-02-15T21:27:47.305Z,0.91
2023-02-15T21:31:17.058Z,0.83
2023-02-15T21:34:39.894Z,0.78
2023-02-15T21:38:01.745Z,0.75
2023-02-15T21:41:42.963Z,0.73
2023-02-15T21:45:25.211Z,0.70
2023-02-15T21:48:48.104Z,0.71
2023-02-15T21:52:12.765Z,0.73
2023-02-15T21:55:34.671Z,0.70
2023-02-15T21:58:56.244Z,0.72
2023-02-15T22:02:29.354Z,0.72
2023-02-15T22:05:52.762Z,0.74
2023-02-15T22:09:17.659Z,0.74
2023-02-15T22:12:40.171Z,0.75
2023-02-15T22:16:03.045Z,0.74
2023-02-15T22:19:24.951Z,0.72
2023-02-15T22:22:48.165Z,0.71
2023-02-15T22:26:16.463Z,0.68
2023-02-15T22:29:38.497Z,0.67
2023-02-15T22:33:02.203Z,0.61
2023-02-15T22:36:25.639Z,0.56
2023-02-15T22:39:48.568Z,0.50
2023-02-15T22:43:22.572Z,0.42
2023-02-15T22:46:44.358Z,0.42
2023-02-15T22:50:16.901Z,0.37
2023-02-15T22:53:38.453Z,0.34
2023-02-15T22:57:01.770Z,0.33
2023-02-15T23:00:26.939Z,0.30
2023-02-15T23:03:48.426Z,0.29
2023-02-15T23:07:14.483Z,0.27
2023-02-15T23:10:36.214Z,0.23
2023-02-15T23:13:59.337Z,0.17
2023-02-15T23:17:20.649Z,0.12
2023-02-15T23:20:42.426Z,0.10
2023-02-15T23:24:21.140Z,0.11
2023-02-15T23:27:57.788Z,0.14
2023-02-15T23:31:22.884Z,0.16
2023-02-15T23:34:44.649Z,0.17
2023-02-15T23:38:18.132Z,0.17
2023-02-15T23:41:40.141Z,0.19
2023-02-15T23:45:03.332Z,0.21
2023-02-15T23:48:32.785Z,0.21
2023-02-15T23:51:56.040Z,0.19
2023-02-15T23:55:18.188Z,0.18
2023-02-15T23:58:42.048Z,0.16
